Terminal Aerodrome Forecast
Issued by NWS

Home | Current Version | Previous Version | Text Only | Print | Product List | Glossary On
Versions: 1 2 3 4 5 6 7 8 9 10 11 12 13 14 15 16 17 18 19 20 21 22 23 24 25 26 27 28 29 30 31 32 33 34 35 36 37 38 39 40 41 42 43
000
FTUS42 KFFC 240546
TAFRYY
TAF
KRYY 240546Z 2406/2506 00000KT P6SM SCT250
     FM241000 14003KT P6SM BKN035 BKN060
     FM241200 15003KT P6SM SCT008 BKN025
     FM241500 19004KT P6SM BKN025 OVC050
     FM241900 17004KT P6SM VCSH SCT015 BKN035 PROB30 2419/2423 3SM
      -TSRA BKN010CB
     FM250200 00000KT 6SM BR OVC007=

USA.gov is the U.S. government's official web portal to all federal, state and local government web resources and services.